sensor_id;sensor_type;location;lat;lon;timestamp;P1;durP1;ratioP1;P2;durP2;ratioP2
12348;SDS011;5974;42.710;27.258;2024-02-14T00:00:15;1.50;;;1.40;;
12348;SDS011;5974;42.710;27.258;2024-02-14T00:02:43;1.10;;;1.10;;
12348;SDS011;5974;42.710;27.258;2024-02-14T00:05:12;1.40;;;1.40;;
12348;SDS011;5974;42.710;27.258;2024-02-14T00:07:39;1.30;;;1.30;;
12348;SDS011;5974;42.710;27.258;2024-02-14T00:10:06;1.20;;;1.20;;
12348;SDS011;5974;42.710;27.258;2024-02-14T00:12:33;1.13;;;1.13;;
12348;SDS011;5974;42.710;27.258;2024-02-14T00:15:01;1.30;;;1.30;;
12348;SDS011;5974;42.710;27.258;2024-02-14T00:17:28;1.23;;;1.23;;
12348;SDS011;5974;42.710;27.258;2024-02-14T00:19:55;1.30;;;1.20;;
12348;SDS011;5974;42.710;27.258;2024-02-14T00:22:23;1.10;;;1.10;;
12348;SDS011;5974;42.710;27.258;2024-02-14T00:24:50;1.50;;;1.20;;
12348;SDS011;5974;42.710;27.258;2024-02-14T00:27:16;1.23;;;1.13;;
12348;SDS011;5974;42.710;27.258;2024-02-14T00:29:43;1.20;;;1.10;;
12348;SDS011;5974;42.710;27.258;2024-02-14T00:32:11;1.47;;;1.37;;
12348;SDS011;5974;42.710;27.258;2024-02-14T00:34:38;1.40;;;1.30;;
12348;SDS011;5974;42.710;27.258;2024-02-14T00:37:05;1.70;;;1.30;;
12348;SDS011;5974;42.710;27.258;2024-02-14T00:39:33;1.00;;;1.00;;
12348;SDS011;5974;42.710;27.258;2024-02-14T00:42:00;1.20;;;1.20;;
12348;SDS011;5974;42.710;27.258;2024-02-14T00:44:27;1.43;;;1.40;;
12348;SDS011;5974;42.710;27.258;2024-02-14T00:46:55;1.37;;;1.30;;
12348;SDS011;5974;42.710;27.258;2024-02-14T00:49:22;1.80;;;1.33;;
12348;SDS011;5974;42.710;27.258;2024-02-14T00:51:49;1.47;;;1.47;;
12348;SDS011;5974;42.710;27.258;2024-02-14T00:54:16;1.60;;;1.50;;
12348;SDS011;5974;42.710;27.258;2024-02-14T00:56:44;1.63;;;1.53;;
12348;SDS011;5974;42.710;27.258;2024-02-14T00:59:10;3.13;;;2.83;;
12348;SDS011;5974;42.710;27.258;2024-02-14T01:01:38;1.50;;;1.40;;
12348;SDS011;5974;42.710;27.258;2024-02-14T01:04:04;1.43;;;1.43;;
12348;SDS011;5974;42.710;27.258;2024-02-14T01:06:32;1.70;;;1.60;;
12348;SDS011;5974;42.710;27.258;2024-02-14T01:08:59;1.27;;;1.27;;
12348;SDS011;5974;42.710;27.258;2024-02-14T01:11:25;1.70;;;1.60;;
12348;SDS011;5974;42.710;27.258;2024-02-14T01:13:55;1.20;;;1.10;;
12348;SDS011;5974;42.710;27.258;2024-02-14T01:16:21;1.43;;;1.33;;
12348;SDS011;5974;42.710;27.258;2024-02-14T01:18:50;1.40;;;1.30;;
12348;SDS011;5974;42.710;27.258;2024-02-14T01:21:17;1.57;;;1.50;;
12348;SDS011;5974;42.710;27.258;2024-02-14T01:23:43;1.90;;;1.80;;
12348;SDS011;5974;42.710;27.258;2024-02-14T01:26:10;1.57;;;1.57;;
12348;SDS011;5974;42.710;27.258;2024-02-14T01:28:37;1.40;;;1.40;;
12348;SDS011;5974;42.710;27.258;2024-02-14T01:31:05;1.50;;;1.50;;
12348;SDS011;5974;42.710;27.258;2024-02-14T01:33:32;1.40;;;1.30;;
12348;SDS011;5974;42.710;27.258;2024-02-14T01:35:58;1.40;;;1.30;;
12348;SDS011;5974;42.710;27.258;2024-02-14T01:38:25;1.50;;;1.50;;
12348;SDS011;5974;42.710;27.258;2024-02-14T01:40:52;1.60;;;1.50;;
12348;SDS011;5974;42.710;27.258;2024-02-14T01:43:19;1.40;;;1.40;;
12348;SDS011;5974;42.710;27.258;2024-02-14T01:45:46;1.40;;;1.40;;
12348;SDS011;5974;42.710;27.258;2024-02-14T01:48:14;1.57;;;1.53;;
12348;SDS011;5974;42.710;27.258;2024-02-14T01:50:43;1.60;;;1.53;;
12348;SDS011;5974;42.710;27.258;2024-02-14T01:53:11;1.63;;;1.53;;
12348;SDS011;5974;42.710;27.258;2024-02-14T01:55:39;2.27;;;2.17;;
12348;SDS011;5974;42.710;27.258;2024-02-14T01:58:06;2.90;;;2.70;;
12348;SDS011;5974;42.710;27.258;2024-02-14T02:00:33;3.70;;;3.10;;
12348;SDS011;5974;42.710;27.258;2024-02-14T02:03:00;2.60;;;2.40;;
12348;SDS011;5974;42.710;27.258;2024-02-14T02:05:29;3.60;;;3.10;;
12348;SDS011;5974;42.710;27.258;2024-02-14T02:07:55;3.90;;;3.60;;
12348;SDS011;5974;42.710;27.258;2024-02-14T02:10:22;2.60;;;2.40;;
12348;SDS011;5974;42.710;27.258;2024-02-14T02:12:51;2.53;;;2.33;;
12348;SDS011;5974;42.710;27.258;2024-02-14T02:15:17;3.60;;;2.63;;
12348;SDS011;5974;42.710;27.258;2024-02-14T02:17:44;2.90;;;2.70;;
12348;SDS011;5974;42.710;27.258;2024-02-14T02:20:17;4.83;;;3.60;;
12348;SDS011;5974;42.710;27.258;2024-02-14T02:22:46;3.50;;;3.20;;
12348;SDS011;5974;42.710;27.258;2024-02-14T02:25:13;2.70;;;2.50;;
12348;SDS011;5974;42.710;27.258;2024-02-14T02:27:40;2.50;;;2.30;;
12348;SDS011;5974;42.710;27.258;2024-02-14T02:30:07;2.90;;;2.70;;
12348;SDS011;5974;42.710;27.258;2024-02-14T02:32:35;2.67;;;2.47;;
12348;SDS011;5974;42.710;27.258;2024-02-14T02:35:03;3.23;;;2.63;;
12348;SDS011;5974;42.710;27.258;2024-02-14T02:37:30;2.30;;;2.20;;
12348;SDS011;5974;42.710;27.258;2024-02-14T02:39:58;2.47;;;2.33;;
12348;SDS011;5974;42.710;27.258;2024-02-14T02:42:25;2.77;;;2.57;;
12348;SDS011;5974;42.710;27.258;2024-02-14T02:44:52;2.73;;;2.53;;
12348;SDS011;5974;42.710;27.258;2024-02-14T02:47:19;3.50;;;3.20;;
12348;SDS011;5974;42.710;27.258;2024-02-14T02:49:46;4.03;;;3.50;;
12348;SDS011;5974;42.710;27.258;2024-02-14T02:52:12;4.00;;;3.67;;
12348;SDS011;5974;42.710;27.258;2024-02-14T02:54:39;5.70;;;3.90;;
12348;SDS011;5974;42.710;27.258;2024-02-14T02:57:10;4.23;;;3.60;;
12348;SDS011;5974;42.710;27.258;2024-02-14T02:59:37;4.50;;;3.77;;
12348;SDS011;5974;42.710;27.258;2024-02-14T03:02:07;4.47;;;3.77;;
12348;SDS011;5974;42.710;27.258;2024-02-14T03:04:36;4.90;;;4.40;;
12348;SDS011;5974;42.710;27.258;2024-02-14T03:07:03;4.90;;;3.73;;
12348;SDS011;5974;42.710;27.258;2024-02-14T03:09:31;5.97;;;3.90;;
12348;SDS011;5974;42.710;27.258;2024-02-14T03:11:58;4.20;;;3.80;;
12348;SDS011;5974;42.710;27.258;2024-02-14T03:14:28;4.80;;;4.37;;
12348;SDS011;5974;42.710;27.258;2024-02-14T03:16:57;5.97;;;4.37;;
12348;SDS011;5974;42.710;27.258;2024-02-14T03:19:25;5.10;;;4.60;;
12348;SDS011;5974;42.710;27.258;2024-02-14T03:21:53;5.43;;;4.83;;
12348;SDS011;5974;42.710;27.258;2024-02-14T03:24:19;5.67;;;5.17;;
12348;SDS011;5974;42.710;27.258;2024-02-14T03:26:46;6.00;;;5.50;;
12348;SDS011;5974;42.710;27.258;2024-02-14T03:29:16;6.00;;;5.37;;
12348;SDS011;5974;42.710;27.258;2024-02-14T03:31:46;6.07;;;5.40;;
12348;SDS011;5974;42.710;27.258;2024-02-14T03:34:12;6.33;;;5.73;;
12348;SDS011;5974;42.710;27.258;2024-02-14T03:36:39;6.77;;;6.00;;
12348;SDS011;5974;42.710;27.258;2024-02-14T03:39:06;5.60;;;5.07;;
12348;SDS011;5974;42.710;27.258;2024-02-14T03:41:33;5.90;;;5.07;;
12348;SDS011;5974;42.710;27.258;2024-02-14T03:43:59;6.87;;;5.27;;
12348;SDS011;5974;42.710;27.258;2024-02-14T03:46:28;6.27;;;5.73;;
12348;SDS011;5974;42.710;27.258;2024-02-14T03:48:56;7.07;;;5.47;;
12348;SDS011;5974;42.710;27.258;2024-02-14T03:51:23;5.43;;;4.93;;
12348;SDS011;5974;42.710;27.258;2024-02-14T03:53:50;6.57;;;5.97;;
12348;SDS011;5974;42.710;27.258;2024-02-14T03:56:17;6.90;;;6.20;;
12348;SDS011;5974;42.710;27.258;2024-02-14T03:58:44;5.83;;;5.30;;
12348;SDS011;5974;42.710;27.258;2024-02-14T04:01:12;6.87;;;6.20;;
12348;SDS011;5974;42.710;27.258;2024-02-14T04:03:39;5.87;;;5.37;;
12348;SDS011;5974;42.710;27.258;2024-02-14T04:06:07;6.30;;;5.70;;
12348;SDS011;5974;42.710;27.258;2024-02-14T04:08:34;6.23;;;5.47;;
12348;SDS011;5974;42.710;27.258;2024-02-14T04:11:00;8.70;;;5.80;;
12348;SDS011;5974;42.710;27.258;2024-02-14T04:13:27;6.17;;;5.57;;
12348;SDS011;5974;42.710;27.258;2024-02-14T04:15:54;5.97;;;5.40;;
12348;SDS011;5974;42.710;27.258;2024-02-14T04:18:20;7.30;;;5.40;;
12348;SDS011;5974;42.710;27.258;2024-02-14T04:20:47;6.00;;;5.40;;
12348;SDS011;5974;42.710;27.258;2024-02-14T04:23:15;6.27;;;5.67;;
12348;SDS011;5974;42.710;27.258;2024-02-14T04:25:42;5.87;;;5.37;;
12348;SDS011;5974;42.710;27.258;2024-02-14T04:28:09;6.33;;;5.73;;
12348;SDS011;5974;42.710;27.258;2024-02-14T04:30:37;5.80;;;5.30;;
12348;SDS011;5974;42.710;27.258;2024-02-14T04:33:04;7.03;;;5.53;;
12348;SDS011;5974;42.710;27.258;2024-02-14T04:35:31;5.67;;;5.07;;
12348;SDS011;5974;42.710;27.258;2024-02-14T04:37:59;5.20;;;4.70;;
12348;SDS011;5974;42.710;27.258;2024-02-14T04:40:27;4.67;;;4.23;;
12348;SDS011;5974;42.710;27.258;2024-02-14T04:42:54;4.60;;;4.30;;
12348;SDS011;5974;42.710;27.258;2024-02-14T04:45:21;4.90;;;4.50;;
12348;SDS011;5974;42.710;27.258;2024-02-14T04:47:48;5.37;;;4.87;;
12348;SDS011;5974;42.710;27.258;2024-02-14T04:50:15;6.97;;;5.13;;
12348;SDS011;5974;42.710;27.258;2024-02-14T04:52:42;4.27;;;3.90;;
12348;SDS011;5974;42.710;27.258;2024-02-14T04:55:08;4.60;;;4.13;;
12348;SDS011;5974;42.710;27.258;2024-02-14T04:57:37;4.43;;;4.13;;
12348;SDS011;5974;42.710;27.258;2024-02-14T05:00:04;4.13;;;3.83;;
12348;SDS011;5974;42.710;27.258;2024-02-14T05:02:34;4.23;;;3.93;;
12348;SDS011;5974;42.710;27.258;2024-02-14T05:05:01;4.23;;;3.83;;
12348;SDS011;5974;42.710;27.258;2024-02-14T05:07:28;4.00;;;3.60;;
12348;SDS011;5974;42.710;27.258;2024-02-14T05:09:55;4.13;;;3.83;;
12348;SDS011;5974;42.710;27.258;2024-02-14T05:12:21;3.67;;;3.47;;
12348;SDS011;5974;42.710;27.258;2024-02-14T05:14:50;3.73;;;3.40;;
12348;SDS011;5974;42.710;27.258;2024-02-14T05:17:16;4.53;;;3.30;;
12348;SDS011;5974;42.710;27.258;2024-02-14T05:19:43;3.40;;;3.20;;
12348;SDS011;5974;42.710;27.258;2024-02-14T05:22:10;3.20;;;2.93;;
12348;SDS011;5974;42.710;27.258;2024-02-14T05:24:36;2.83;;;2.67;;
12348;SDS011;5974;42.710;27.258;2024-02-14T05:27:03;3.20;;;3.00;;
12348;SDS011;5974;42.710;27.258;2024-02-14T05:29:31;2.70;;;2.53;;
12348;SDS011;5974;42.710;27.258;2024-02-14T05:31:59;3.17;;;2.87;;
12348;SDS011;5974;42.710;27.258;2024-02-14T05:34:26;2.80;;;2.63;;
12348;SDS011;5974;42.710;27.258;2024-02-14T05:36:53;2.50;;;2.30;;
12348;SDS011;5974;42.710;27.258;2024-02-14T05:39:19;3.13;;;2.93;;
12348;SDS011;5974;42.710;27.258;2024-02-14T05:41:46;2.50;;;2.40;;
12348;SDS011;5974;42.710;27.258;2024-02-14T05:44:14;2.87;;;2.67;;
12348;SDS011;5974;42.710;27.258;2024-02-14T05:46:41;2.57;;;2.40;;
12348;SDS011;5974;42.710;27.258;2024-02-14T05:49:09;2.93;;;2.40;;
12348;SDS011;5974;42.710;27.258;2024-02-14T05:51:36;2.70;;;2.20;;
12348;SDS011;5974;42.710;27.258;2024-02-14T05:54:03;2.30;;;2.20;;
12348;SDS011;5974;42.710;27.258;2024-02-14T05:56:29;2.33;;;2.23;;
12348;SDS011;5974;42.710;27.258;2024-02-14T05:58:56;2.47;;;2.30;;
12348;SDS011;5974;42.710;27.258;2024-02-14T06:01:23;2.47;;;2.27;;
12348;SDS011;5974;42.710;27.258;2024-02-14T06:03:49;2.10;;;2.00;;
12348;SDS011;5974;42.710;27.258;2024-02-14T06:06:18;2.30;;;2.20;;
12348;SDS011;5974;42.710;27.258;2024-02-14T06:08:44;2.40;;;2.30;;
12348;SDS011;5974;42.710;27.258;2024-02-14T06:11:11;2.53;;;2.20;;
12348;SDS011;5974;42.710;27.258;2024-02-14T06:13:39;1.90;;;1.80;;
12348;SDS011;5974;42.710;27.258;2024-02-14T06:16:06;2.27;;;2.17;;
12348;SDS011;5974;42.710;27.258;2024-02-14T06:18:33;2.67;;;1.80;;
12348;SDS011;5974;42.710;27.258;2024-02-14T06:21:00;2.00;;;1.90;;
12348;SDS011;5974;42.710;27.258;2024-02-14T06:23:28;2.17;;;2.00;;
12348;SDS011;5974;42.710;27.258;2024-02-14T06:25:56;2.00;;;1.90;;
12348;SDS011;5974;42.710;27.258;2024-02-14T06:28:22;2.30;;;2.10;;
12348;SDS011;5974;42.710;27.258;2024-02-14T06:30:49;2.27;;;1.70;;
12348;SDS011;5974;42.710;27.258;2024-02-14T06:33:16;2.03;;;1.87;;
12348;SDS011;5974;42.710;27.258;2024-02-14T06:35:43;2.17;;;1.70;;
12348;SDS011;5974;42.710;27.258;2024-02-14T06:38:10;2.00;;;1.80;;
12348;SDS011;5974;42.710;27.258;2024-02-14T06:40:38;2.87;;;1.80;;
12348;SDS011;5974;42.710;27.258;2024-02-14T06:43:05;1.80;;;1.70;;
12348;SDS011;5974;42.710;27.258;2024-02-14T06:45:32;1.60;;;1.50;;
12348;SDS011;5974;42.710;27.258;2024-02-14T06:47:59;1.67;;;1.57;;
12348;SDS011;5974;42.710;27.258;2024-02-14T06:50:26;1.50;;;1.50;;
12348;SDS011;5974;42.710;27.258;2024-02-14T06:52:54;2.13;;;1.90;;
12348;SDS011;5974;42.710;27.258;2024-02-14T06:55:24;1.40;;;1.40;;
12348;SDS011;5974;42.710;27.258;2024-02-14T06:57:52;1.93;;;1.70;;
12348;SDS011;5974;42.710;27.258;2024-02-14T07:00:19;1.63;;;1.53;;
12348;SDS011;5974;42.710;27.258;2024-02-14T07:02:46;1.40;;;1.30;;
12348;SDS011;5974;42.710;27.258;2024-02-14T07:05:13;2.10;;;2.00;;
12348;SDS011;5974;42.710;27.258;2024-02-14T07:07:40;1.50;;;1.40;;
12348;SDS011;5974;42.710;27.258;2024-02-14T07:10:07;2.53;;;1.50;;
12348;SDS011;5974;42.710;27.258;2024-02-14T07:12:35;1.83;;;1.73;;
12348;SDS011;5974;42.710;27.258;2024-02-14T07:15:04;1.43;;;1.40;;
12348;SDS011;5974;42.710;27.258;2024-02-14T07:17:31;1.40;;;1.40;;
12348;SDS011;5974;42.710;27.258;2024-02-14T07:19:58;2.70;;;1.50;;
12348;SDS011;5974;42.710;27.258;2024-02-14T07:22:25;1.40;;;1.40;;
12348;SDS011;5974;42.710;27.258;2024-02-14T07:24:52;1.20;;;1.20;;
12348;SDS011;5974;42.710;27.258;2024-02-14T07:27:19;1.20;;;1.20;;
12348;SDS011;5974;42.710;27.258;2024-02-14T07:29:46;1.30;;;1.30;;
12348;SDS011;5974;42.710;27.258;2024-02-14T07:32:15;1.20;;;1.20;;
12348;SDS011;5974;42.710;27.258;2024-02-14T07:34:42;1.27;;;1.27;;
12348;SDS011;5974;42.710;27.258;2024-02-14T07:37:08;1.60;;;1.50;;
12348;SDS011;5974;42.710;27.258;2024-02-14T07:39:35;2.20;;;1.40;;
12348;SDS011;5974;42.710;27.258;2024-02-14T07:42:02;1.47;;;1.37;;
12348;SDS011;5974;42.710;27.258;2024-02-14T07:44:31;2.17;;;1.60;;
12348;SDS011;5974;42.710;27.258;2024-02-14T07:46:58;1.80;;;1.70;;
12348;SDS011;5974;42.710;27.258;2024-02-14T07:49:26;3.33;;;2.50;;
12348;SDS011;5974;42.710;27.258;2024-02-14T07:51:53;2.47;;;2.27;;
12348;SDS011;5974;42.710;27.258;2024-02-14T07:54:20;2.03;;;1.93;;
12348;SDS011;5974;42.710;27.258;2024-02-14T07:56:46;2.20;;;2.00;;
12348;SDS011;5974;42.710;27.258;2024-02-14T07:59:13;1.60;;;1.50;;
12348;SDS011;5974;42.710;27.258;2024-02-14T08:01:40;2.03;;;1.60;;
12348;SDS011;5974;42.710;27.258;2024-02-14T08:04:08;1.60;;;1.50;;
12348;SDS011;5974;42.710;27.258;2024-02-14T08:06:36;1.73;;;1.63;;
12348;SDS011;5974;42.710;27.258;2024-02-14T08:09:03;3.20;;;2.00;;
12348;SDS011;5974;42.710;27.258;2024-02-14T08:11:31;1.37;;;1.27;;
12348;SDS011;5974;42.710;27.258;2024-02-14T08:13:58;1.33;;;1.27;;
12348;SDS011;5974;42.710;27.258;2024-02-14T08:16:25;1.67;;;1.20;;
12348;SDS011;5974;42.710;27.258;2024-02-14T08:18:51;1.03;;;1.03;;
12348;SDS011;5974;42.710;27.258;2024-02-14T08:21:23;1.33;;;1.23;;
12348;SDS011;5974;42.710;27.258;2024-02-14T08:23:52;1.33;;;1.13;;
12348;SDS011;5974;42.710;27.258;2024-02-14T08:26:19;1.10;;;1.10;;
12348;SDS011;5974;42.710;27.258;2024-02-14T08:28:47;1.20;;;1.20;;
12348;SDS011;5974;42.710;27.258;2024-02-14T08:31:14;1.50;;;1.20;;
12348;SDS011;5974;42.710;27.258;2024-02-14T08:33:41;1.83;;;1.70;;
12348;SDS011;5974;42.710;27.258;2024-02-14T08:36:08;1.10;;;1.10;;
12348;SDS011;5974;42.710;27.258;2024-02-14T08:38:35;1.57;;;1.10;;
12348;SDS011;5974;42.710;27.258;2024-02-14T08:41:03;1.30;;;1.20;;
12348;SDS011;5974;42.710;27.258;2024-02-14T08:43:31;1.33;;;1.33;;
12348;SDS011;5974;42.710;27.258;2024-02-14T08:45:58;1.30;;;1.30;;
12348;SDS011;5974;42.710;27.258;2024-02-14T08:48:25;1.73;;;1.63;;
12348;SDS011;5974;42.710;27.258;2024-02-14T08:50:54;1.50;;;1.37;;
12348;SDS011;5974;42.710;27.258;2024-02-14T08:53:20;1.10;;;1.00;;
12348;SDS011;5974;42.710;27.258;2024-02-14T08:55:47;0.90;;;0.90;;
12348;SDS011;5974;42.710;27.258;2024-02-14T08:58:15;0.90;;;0.90;;
12348;SDS011;5974;42.710;27.258;2024-02-14T09:00:42;0.90;;;0.90;;
12348;SDS011;5974;42.710;27.258;2024-02-14T09:03:09;1.00;;;1.00;;
12348;SDS011;5974;42.710;27.258;2024-02-14T09:05:35;0.80;;;0.80;;
12348;SDS011;5974;42.710;27.258;2024-02-14T09:08:03;1.30;;;1.20;;
12348;SDS011;5974;42.710;27.258;2024-02-14T09:10:30;1.77;;;1.10;;
12348;SDS011;5974;42.710;27.258;2024-02-14T09:12:57;0.90;;;0.90;;
12348;SDS011;5974;42.710;27.258;2024-02-14T09:15:26;0.90;;;0.90;;
12348;SDS011;5974;42.710;27.258;2024-02-14T09:17:52;0.93;;;0.93;;
12348;SDS011;5974;42.710;27.258;2024-02-14T09:20:20;1.57;;;1.30;;
12348;SDS011;5974;42.710;27.258;2024-02-14T09:22:47;1.97;;;0.83;;
12348;SDS011;5974;42.710;27.258;2024-02-14T09:25:13;1.13;;;0.90;;
12348;SDS011;5974;42.710;27.258;2024-02-14T09:27:40;1.83;;;0.70;;
12348;SDS011;5974;42.710;27.258;2024-02-14T09:30:08;0.90;;;0.90;;
12348;SDS011;5974;42.710;27.258;2024-02-14T09:32:38;0.87;;;0.87;;
12348;SDS011;5974;42.710;27.258;2024-02-14T09:35:05;0.83;;;0.83;;
12348;SDS011;5974;42.710;27.258;2024-02-14T09:37:32;0.80;;;0.80;;
12348;SDS011;5974;42.710;27.258;2024-02-14T09:39:59;0.60;;;0.60;;
12348;SDS011;5974;42.710;27.258;2024-02-14T09:42:27;0.70;;;0.70;;
12348;SDS011;5974;42.710;27.258;2024-02-14T09:44:59;0.80;;;0.77;;
12348;SDS011;5974;42.710;27.258;2024-02-14T09:47:26;0.53;;;0.53;;
12348;SDS011;5974;42.710;27.258;2024-02-14T09:49:59;2.00;;;0.80;;
12348;SDS011;5974;42.710;27.258;2024-02-14T09:52:28;1.03;;;0.60;;
12348;SDS011;5974;42.710;27.258;2024-02-14T09:54:58;0.60;;;0.60;;
12348;SDS011;5974;42.710;27.258;2024-02-14T09:57:25;0.67;;;0.67;;
12348;SDS011;5974;42.710;27.258;2024-02-14T09:59:55;0.57;;;0.57;;
12348;SDS011;5974;42.710;27.258;2024-02-14T10:02:23;0.70;;;0.70;;
12348;SDS011;5974;42.710;27.258;2024-02-14T10:04:50;0.70;;;0.70;;
12348;SDS011;5974;42.710;27.258;2024-02-14T10:07:18;0.70;;;0.70;;
12348;SDS011;5974;42.710;27.258;2024-02-14T10:09:45;1.73;;;0.73;;
12348;SDS011;5974;42.710;27.258;2024-02-14T10:12:12;1.60;;;0.73;;
12348;SDS011;5974;42.710;27.258;2024-02-14T10:14:39;0.60;;;0.60;;
12348;SDS011;5974;42.710;27.258;2024-02-14T10:17:07;2.40;;;0.70;;
12348;SDS011;5974;42.710;27.258;2024-02-14T10:19:35;0.60;;;0.60;;
12348;SDS011;5974;42.710;27.258;2024-02-14T10:22:02;0.60;;;0.60;;
12348;SDS011;5974;42.710;27.258;2024-02-14T10:24:32;0.60;;;0.60;;
12348;SDS011;5974;42.710;27.258;2024-02-14T10:26:59;0.70;;;0.70;;
12348;SDS011;5974;42.710;27.258;2024-02-14T10:29:26;0.67;;;0.67;;
12348;SDS011;5974;42.710;27.258;2024-02-14T10:31:52;0.60;;;0.60;;
12348;SDS011;5974;42.710;27.258;2024-02-14T10:34:19;5.27;;;3.90;;
12348;SDS011;5974;42.710;27.258;2024-02-14T10:36:51;0.70;;;0.70;;
12348;SDS011;5974;42.710;27.258;2024-02-14T10:39:18;0.60;;;0.60;;
12348;SDS011;5974;42.710;27.258;2024-02-14T10:41:47;4.77;;;0.70;;
12348;SDS011;5974;42.710;27.258;2024-02-14T10:44:15;2.57;;;0.57;;
12348;SDS011;5974;42.710;27.258;2024-02-14T10:46:42;1.00;;;0.67;;
12348;SDS011;5974;42.710;27.258;2024-02-14T10:49:12;0.63;;;0.63;;
12348;SDS011;5974;42.710;27.258;2024-02-14T10:51:42;0.60;;;0.60;;
12348;SDS011;5974;42.710;27.258;2024-02-14T10:54:13;0.57;;;0.57;;
12348;SDS011;5974;42.710;27.258;2024-02-14T10:56:42;0.70;;;0.70;;
12348;SDS011;5974;42.710;27.258;2024-02-14T10:59:15;0.53;;;0.53;;
12348;SDS011;5974;42.710;27.258;2024-02-14T11:01:45;0.80;;;0.80;;
12348;SDS011;5974;42.710;27.258;2024-02-14T11:04:13;1.30;;;0.57;;
12348;SDS011;5974;42.710;27.258;2024-02-14T11:06:44;1.70;;;0.60;;
12348;SDS011;5974;42.710;27.258;2024-02-14T11:09:12;0.60;;;0.60;;
12348;SDS011;5974;42.710;27.258;2024-02-14T11:11:40;3.77;;;3.47;;
12348;SDS011;5974;42.710;27.258;2024-02-14T11:14:10;1.10;;;1.10;;
12348;SDS011;5974;42.710;27.258;2024-02-14T11:16:44;0.90;;;0.90;;
12348;SDS011;5974;42.710;27.258;2024-02-14T11:19:12;0.60;;;0.60;;
12348;SDS011;5974;42.710;27.258;2024-02-14T11:21:41;6.80;;;0.70;;
12348;SDS011;5974;42.710;27.258;2024-02-14T11:24:10;0.50;;;0.50;;
12348;SDS011;5974;42.710;27.258;2024-02-14T11:26:38;0.50;;;0.50;;
12348;SDS011;5974;42.710;27.258;2024-02-14T11:29:05;2.00;;;0.70;;
12348;SDS011;5974;42.710;27.258;2024-02-14T11:31:34;0.60;;;0.60;;
12348;SDS011;5974;42.710;27.258;2024-02-14T11:34:03;1.30;;;0.67;;
12348;SDS011;5974;42.710;27.258;2024-02-14T11:36:31;0.57;;;0.50;;
12348;SDS011;5974;42.710;27.258;2024-02-14T11:39:02;0.80;;;0.80;;
12348;SDS011;5974;42.710;27.258;2024-02-14T11:41:30;0.70;;;0.70;;
12348;SDS011;5974;42.710;27.258;2024-02-14T11:44:00;2.73;;;0.80;;
12348;SDS011;5974;42.710;27.258;2024-02-14T11:46:29;0.57;;;0.57;;
12348;SDS011;5974;42.710;27.258;2024-02-14T11:48:59;0.53;;;0.53;;
12348;SDS011;5974;42.710;27.258;2024-02-14T11:51:27;0.83;;;0.80;;
12348;SDS011;5974;42.710;27.258;2024-02-14T11:53:55;0.73;;;0.73;;
12348;SDS011;5974;42.710;27.258;2024-02-14T11:56:22;0.63;;;0.63;;
12348;SDS011;5974;42.710;27.258;2024-02-14T11:58:51;1.23;;;0.70;;
12348;SDS011;5974;42.710;27.258;2024-02-14T12:01:18;0.70;;;0.70;;
12348;SDS011;5974;42.710;27.258;2024-02-14T12:03:44;0.70;;;0.70;;
12348;SDS011;5974;42.710;27.258;2024-02-14T12:06:13;0.70;;;0.70;;
12348;SDS011;5974;42.710;27.258;2024-02-14T12:08:40;1.33;;;1.00;;
12348;SDS011;5974;42.710;27.258;2024-02-14T12:11:08;0.60;;;0.60;;
12348;SDS011;5974;42.710;27.258;2024-02-14T12:13:35;0.80;;;0.80;;
12348;SDS011;5974;42.710;27.258;2024-02-14T12:16:03;0.70;;;0.70;;
12348;SDS011;5974;42.710;27.258;2024-02-14T12:18:33;1.00;;;0.57;;
12348;SDS011;5974;42.710;27.258;2024-02-14T12:21:03;2.10;;;0.90;;
12348;SDS011;5974;42.710;27.258;2024-02-14T12:23:34;0.90;;;0.80;;
12348;SDS011;5974;42.710;27.258;2024-02-14T12:26:01;0.80;;;0.80;;
12348;SDS011;5974;42.710;27.258;2024-02-14T12:28:29;0.60;;;0.60;;
12348;SDS011;5974;42.710;27.258;2024-02-14T12:30:57;0.80;;;0.80;;
12348;SDS011;5974;42.710;27.258;2024-02-14T12:33:25;1.07;;;1.07;;
12348;SDS011;5974;42.710;27.258;2024-02-14T12:35:53;1.20;;;1.10;;
12348;SDS011;5974;42.710;27.258;2024-02-14T12:38:20;0.90;;;0.90;;
12348;SDS011;5974;42.710;27.258;2024-02-14T12:40:50;0.70;;;0.70;;
12348;SDS011;5974;42.710;27.258;2024-02-14T12:43:19;2.43;;;1.00;;
12348;SDS011;5974;42.710;27.258;2024-02-14T12:45:46;0.80;;;0.80;;
12348;SDS011;5974;42.710;27.258;2024-02-14T12:48:21;1.00;;;1.00;;
12348;SDS011;5974;42.710;27.258;2024-02-14T12:50:50;5.70;;;1.10;;
12348;SDS011;5974;42.710;27.258;2024-02-14T12:53:17;1.47;;;1.00;;
12348;SDS011;5974;42.710;27.258;2024-02-14T12:55:44;1.00;;;1.00;;
12348;SDS011;5974;42.710;27.258;2024-02-14T12:58:13;1.17;;;1.17;;
12348;SDS011;5974;42.710;27.258;2024-02-14T13:00:41;2.27;;;1.07;;
12348;SDS011;5974;42.710;27.258;2024-02-14T13:03:09;1.57;;;1.20;;
12348;SDS011;5974;42.710;27.258;2024-02-14T13:05:36;1.27;;;1.07;;
12348;SDS011;5974;42.710;27.258;2024-02-14T13:08:04;1.30;;;1.20;;
12348;SDS011;5974;42.710;27.258;2024-02-14T13:10:31;2.00;;;1.20;;
12348;SDS011;5974;42.710;27.258;2024-02-14T13:12:59;1.10;;;1.10;;
12348;SDS011;5974;42.710;27.258;2024-02-14T13:15:27;3.00;;;1.60;;
12348;SDS011;5974;42.710;27.258;2024-02-14T13:17:54;1.67;;;1.37;;
12348;SDS011;5974;42.710;27.258;2024-02-14T13:20:23;2.73;;;1.23;;
12348;SDS011;5974;42.710;27.258;2024-02-14T13:22:50;1.00;;;1.00;;
12348;SDS011;5974;42.710;27.258;2024-02-14T13:25:17;1.03;;;1.03;;
12348;SDS011;5974;42.710;27.258;2024-02-14T13:27:44;4.30;;;1.77;;
12348;SDS011;5974;42.710;27.258;2024-02-14T13:30:11;2.23;;;1.10;;
12348;SDS011;5974;42.710;27.258;2024-02-14T13:32:39;1.07;;;1.00;;
12348;SDS011;5974;42.710;27.258;2024-02-14T13:35:06;1.03;;;1.03;;
12348;SDS011;5974;42.710;27.258;2024-02-14T13:37:33;1.30;;;1.10;;
12348;SDS011;5974;42.710;27.258;2024-02-14T13:40:01;1.10;;;1.10;;
12348;SDS011;5974;42.710;27.258;2024-02-14T13:42:29;3.10;;;1.60;;
12348;SDS011;5974;42.710;27.258;2024-02-14T13:44:56;4.40;;;1.83;;
12348;SDS011;5974;42.710;27.258;2024-02-14T13:47:23;16.40;;;5.70;;
12348;SDS011;5974;42.710;27.258;2024-02-14T13:49:51;8.57;;;5.80;;
12348;SDS011;5974;42.710;27.258;2024-02-14T13:52:18;8.97;;;6.33;;
12348;SDS011;5974;42.710;27.258;2024-02-14T13:54:45;3.57;;;2.70;;
12348;SDS011;5974;42.710;27.258;2024-02-14T13:57:12;6.30;;;1.50;;
12348;SDS011;5974;42.710;27.258;2024-02-14T13:59:39;1.83;;;1.47;;
12348;SDS011;5974;42.710;27.258;2024-02-14T14:02:07;1.40;;;1.40;;
12348;SDS011;5974;42.710;27.258;2024-02-14T14:04:34;1.60;;;1.50;;
12348;SDS011;5974;42.710;27.258;2024-02-14T14:07:03;2.60;;;2.40;;
12348;SDS011;5974;42.710;27.258;2024-02-14T14:09:30;1.33;;;1.33;;
12348;SDS011;5974;42.710;27.258;2024-02-14T14:11:58;1.43;;;1.43;;
12348;SDS011;5974;42.710;27.258;2024-02-14T14:14:24;1.53;;;1.43;;
12348;SDS011;5974;42.710;27.258;2024-02-14T14:16:52;1.30;;;1.30;;
12348;SDS011;5974;42.710;27.258;2024-02-14T14:19:19;1.80;;;1.70;;
12348;SDS011;5974;42.710;27.258;2024-02-14T14:21:46;1.30;;;1.30;;
12348;SDS011;5974;42.710;27.258;2024-02-14T14:24:14;1.60;;;1.50;;
12348;SDS011;5974;42.710;27.258;2024-02-14T14:26:41;1.60;;;1.50;;
12348;SDS011;5974;42.710;27.258;2024-02-14T14:29:08;1.30;;;1.30;;
12348;SDS011;5974;42.710;27.258;2024-02-14T14:31:35;1.50;;;1.33;;
12348;SDS011;5974;42.710;27.258;2024-02-14T14:34:02;1.30;;;1.30;;
12348;SDS011;5974;42.710;27.258;2024-02-14T14:36:29;1.30;;;1.30;;
12348;SDS011;5974;42.710;27.258;2024-02-14T14:38:56;1.47;;;1.37;;
12348;SDS011;5974;42.710;27.258;2024-02-14T14:41:24;1.80;;;1.70;;
12348;SDS011;5974;42.710;27.258;2024-02-14T14:43:51;1.70;;;1.60;;
12348;SDS011;5974;42.710;27.258;2024-02-14T14:46:18;1.90;;;1.80;;
12348;SDS011;5974;42.710;27.258;2024-02-14T14:48:44;1.80;;;1.70;;